sensor_id;sensor_type;location;lat;lon;timestamp;pressure;altitude;pressure_sealevel;temperature
74533;BMP180;63012;51.096;-115.366;2022-08-19T21:47:24;86826.60;;;23.80
74533;BMP180;63012;51.096;-115.366;2022-08-19T21:49:54;86821.80;;;23.90
74533;BMP180;63012;51.096;-115.366;2022-08-19T21:52:28;86823.20;;;24.00
74533;BMP180;63012;51.096;-115.366;2022-08-19T21:54:55;86823.60;;;24.10
74533;BMP180;63012;51.096;-115.366;2022-08-19T21:57:24;86808.00;;;24.10
74533;BMP180;63012;51.096;-115.366;2022-08-19T21:59:57;86804.40;;;24.20
74533;BMP180;63012;51.096;-115.366;2022-08-19T22:02:24;86801.40;;;24.20
74533;BMP180;63012;51.096;-115.366;2022-08-19T22:04:53;86794.80;;;24.26
74533;BMP180;63012;51.096;-115.366;2022-08-19T22:07:21;86794.60;;;24.30
74533;BMP180;63012;51.096;-115.366;2022-08-19T22:09:49;86792.40;;;24.30
74533;BMP180;63012;51.096;-115.366;2022-08-19T22:12:30;86792.00;;;24.36
74533;BMP180;63012;51.096;-115.366;2022-08-19T22:14:58;86785.20;;;24.40
74533;BMP180;63012;51.096;-115.366;2022-08-19T22:17:28;86785.40;;;24.40
74533;BMP180;63012;51.096;-115.366;2022-08-19T22:19:56;86780.00;;;24.48
74533;BMP180;63012;51.096;-115.366;2022-08-19T22:22:30;86776.00;;;24.48
74533;BMP180;63012;51.096;-115.366;2022-08-19T22:25:10;86773.80;;;24.50
74533;BMP180;63012;51.096;-115.366;2022-08-19T22:27:39;86767.40;;;24.50
74533;BMP180;63012;51.096;-115.366;2022-08-19T22:30:10;86767.00;;;24.50
74533;BMP180;63012;51.096;-115.366;2022-08-19T22:32:51;86767.60;;;24.50
74533;BMP180;63012;51.096;-115.366;2022-08-19T22:35:21;86759.80;;;24.50
74533;BMP180;63012;51.096;-115.366;2022-08-19T22:37:50;86764.20;;;24.50
74533;BMP180;63012;51.096;-115.366;2022-08-19T22:40:29;86766.80;;;24.60
74533;BMP180;63012;51.096;-115.366;2022-08-19T22:43:04;86763.00;;;24.70
74533;BMP180;63012;51.096;-115.366;2022-08-19T22:45:36;86763.60;;;24.80
74533;BMP180;63012;51.096;-115.366;2022-08-19T22:48:06;86759.00;;;24.86
74533;BMP180;63012;51.096;-115.366;2022-08-19T22:50:35;86760.40;;;24.90
74533;BMP180;63012;51.096;-115.366;2022-08-19T22:53:07;86762.40;;;25.00
74533;BMP180;63012;51.096;-115.366;2022-08-19T22:55:38;86759.00;;;25.06
74533;BMP180;63012;51.096;-115.366;2022-08-19T22:58:07;86760.00;;;25.10
74533;BMP180;63012;51.096;-115.366;2022-08-19T23:00:37;86752.00;;;25.20
74533;BMP180;63012;51.096;-115.366;2022-08-19T23:03:06;86747.60;;;25.20
74533;BMP180;63012;51.096;-115.366;2022-08-19T23:05:33;86748.00;;;25.30
74533;BMP180;63012;51.096;-115.366;2022-08-19T23:08:03;86747.40;;;25.30
74533;BMP180;63012;51.096;-115.366;2022-08-19T23:10:31;86750.20;;;25.40
74533;BMP180;63012;51.096;-115.366;2022-08-19T23:12:58;86748.20;;;25.40
74533;BMP180;63012;51.096;-115.366;2022-08-19T23:15:31;86745.40;;;25.50
74533;BMP180;63012;51.096;-115.366;2022-08-19T23:18:02;86744.20;;;25.52
74533;BMP180;63012;51.096;-115.366;2022-08-19T23:20:38;86745.80;;;25.60
74533;BMP180;63012;51.096;-115.366;2022-08-19T23:23:10;86749.20;;;25.60
74533;BMP180;63012;51.096;-115.366;2022-08-19T23:25:39;86745.60;;;25.70
74533;BMP180;63012;51.096;-115.366;2022-08-19T23:28:06;86747.60;;;25.70
74533;BMP180;63012;51.096;-115.366;2022-08-19T23:30:55;86739.80;;;25.80
74533;BMP180;63012;51.096;-115.366;2022-08-19T23:33:35;86736.40;;;25.80
74533;BMP180;63012;51.096;-115.366;2022-08-19T23:36:11;86732.00;;;25.90
74533;BMP180;63012;51.096;-115.366;2022-08-19T23:38:41;86736.40;;;25.90
74533;BMP180;63012;51.096;-115.366;2022-08-19T23:41:12;86734.00;;;25.98
74533;BMP180;63012;51.096;-115.366;2022-08-19T23:43:40;86732.40;;;26.00
74533;BMP180;63012;51.096;-115.366;2022-08-19T23:46:11;86728.80;;;26.00
74533;BMP180;63012;51.096;-115.366;2022-08-19T23:48:42;86730.80;;;26.10
74533;BMP180;63012;51.096;-115.366;2022-08-19T23:51:12;86731.80;;;26.10
74533;BMP180;63012;51.096;-115.366;2022-08-19T23:53:41;86728.20;;;26.12
74533;BMP180;63012;51.096;-115.366;2022-08-19T23:56:10;86732.20;;;26.20
74533;BMP180;63012;51.096;-115.366;2022-08-19T23:58:38;86731.80;;;26.20
